Time;durP1;ratioP1;P1;durP2;ratioP2;P2;SDS_P1;SDS_P2;PMS_P1;PMS_P2;Temp;Humidity;BMP_temperature;BMP_pressure;BME280_temperature;BME280_humidity;BME280_pressure;Samples;Min_cycle;Max_cycle;Signal;HPM_P1;HPM_P2
2022/10/28 00:01:26;;;;;;;3.33;3.13;;;16.00;99.90;;;;;;5109678;28;20753;-68
2022/10/28 00:03:55;;;;;;;5.67;3.57;;;16.00;99.90;;;;;;5109374;28;20233;-68
2022/10/28 00:06:24;;;;;;;7.83;3.23;;;16.00;99.90;;;;;;5109272;28;20199;-68
2022/10/28 00:08:51;;;;;;;3.57;3.33;;;16.00;99.90;;;;;;5109346;27;20206;-67
2022/10/28 00:11:20;;;;;;;3.67;3.30;;;16.00;99.90;;;;;;5109116;28;20672;-68
2022/10/28 00:13:49;;;;;;;4.03;3.63;;;16.00;99.90;;;;;;5108202;28;20234;-68
2022/10/28 00:16:18;;;;;;;5.87;3.40;;;16.00;99.90;;;;;;5109460;28;20199;-68
2022/10/28 00:18:46;;;;;;;4.30;3.27;;;16.00;99.90;;;;;;5119754;27;20621;-68
2022/10/28 00:21:15;;;;;;;6.90;3.70;;;15.90;99.90;;;;;;5129580;27;20205;-68
2022/10/28 00:23:42;;;;;;;5.43;3.50;;;15.90;99.90;;;;;;5129093;27;20202;-67
2022/10/28 00:26:10;;;;;;;3.70;3.40;;;15.90;99.90;;;;;;5122892;27;20660;-68
2022/10/28 00:28:42;;;;;;;3.73;3.40;;;15.90;99.90;;;;;;5109161;28;20847;-68
2022/10/28 00:31:12;;;;;;;3.63;3.43;;;15.90;99.90;;;;;;5109385;28;20198;-68
2022/10/28 00:33:39;;;;;;;6.40;3.57;;;15.90;99.90;;;;;;5108866;28;20356;-67
2022/10/28 00:36:11;;;;;;;4.60;3.30;;;15.90;99.90;;;;;;5109187;28;20210;-68
2022/10/28 00:38:38;;;;;;;3.90;3.20;;;16.00;99.90;;;;;;5108923;28;20202;-68
2022/10/28 00:41:06;;;;;;;3.70;3.40;;;15.90;99.90;;;;;;5108933;28;20200;-68
2022/10/28 00:43:38;;;;;;;8.80;3.53;;;15.90;99.90;;;;;;5109020;28;20580;-68
2022/10/28 00:46:14;;;;;;;3.67;3.30;;;15.90;99.90;;;;;;5108772;28;20645;-68
2022/10/28 00:48:45;;;;;;;4.47;3.43;;;15.90;99.90;;;;;;5109041;28;20217;-68
2022/10/28 00:51:13;;;;;;;5.10;3.50;;;15.90;99.90;;;;;;5108640;28;20194;-68
2022/10/28 00:53:43;;;;;;;6.23;3.80;;;15.80;99.90;;;;;;5108468;28;20226;-68
2022/10/28 00:56:12;;;;;;;3.97;3.63;;;15.90;99.90;;;;;;5118342;27;20216;-68
2022/10/28 00:58:39;;;;;;;4.53;3.50;;;15.90;99.90;;;;;;5129492;27;20216;-68
2022/10/28 01:01:06;;;;;;;4.20;3.20;;;15.90;99.90;;;;;;5129061;27;20209;-68
2022/10/28 01:03:35;;;;;;;5.50;3.50;;;15.80;99.90;;;;;;5127525;27;20248;-68
2022/10/28 01:06:03;;;;;;;3.50;3.20;;;15.90;99.90;;;;;;5128908;27;20754;-68
2022/10/28 01:08:31;;;;;;;4.73;3.70;;;15.90;99.90;;;;;;5128900;27;20201;-68
2022/10/28 01:11:17;;;;;;;4.87;3.30;;;15.90;99.90;;;;;;5128619;27;20816;-68
2022/10/28 01:13:54;;;;;;;7.73;4.00;;;15.90;99.90;;;;;;5126528;27;20228;-68
2022/10/28 01:16:32;;;;;;;4.67;3.30;;;15.90;99.90;;;;;;5108587;28;20186;-68
2022/10/28 01:19:27;;;;;;;7.17;3.67;;;15.90;99.90;;;;;;5108502;28;20564;-68
2022/10/28 01:22:13;;;;;;;8.17;3.57;;;15.80;99.90;;;;;;5108164;28;20194;-68
2022/10/28 01:25:10;;;;;;;4.40;3.80;;;15.80;99.90;;;;;;5107131;27;20683;-68
2022/10/28 01:28:07;;;;;;;6.17;3.70;;;15.80;99.90;;;;;;5107651;28;20571;-68
2022/10/28 01:30:44;;;;;;;5.40;3.67;;;15.80;99.90;;;;;;5108168;28;20194;-68
2022/10/28 01:33:23;;;;;;;3.97;3.60;;;15.80;99.90;;;;;;5108132;28;20201;-68
2022/10/28 01:35:53;;;;;;;4.20;3.83;;;15.80;99.90;;;;;;5107786;28;20777;-68
2022/10/28 01:38:29;;;;;;;5.03;3.73;;;15.80;99.90;;;;;;5107643;28;20198;-68
2022/10/28 01:41:06;;;;;;;7.03;3.60;;;15.80;99.90;;;;;;5107902;28;20190;-68
2022/10/28 01:43:45;;;;;;;4.17;3.50;;;15.80;99.90;;;;;;5108001;28;20190;-68
2022/10/28 01:46:16;;;;;;;3.80;3.50;;;15.80;99.90;;;;;;5107941;28;20194;-68
2022/10/28 01:48:50;;;;;;;5.13;4.07;;;15.80;99.90;;;;;;5107942;28;20205;-68
2022/10/28 01:51:23;;;;;;;5.60;4.13;;;15.80;99.90;;;;;;5111982;28;20356;-68
2022/10/28 01:53:55;;;;;;;3.93;3.53;;;15.70;99.90;;;;;;5107758;28;20222;-68
2022/10/28 01:56:26;;;;;;;5.77;3.90;;;15.80;99.90;;;;;;5107879;28;20206;-68
2022/10/28 01:58:54;;;;;;;4.20;3.73;;;15.70;99.90;;;;;;5108042;28;20195;-68
2022/10/28 02:01:23;;;;;;;6.50;4.00;;;15.70;99.90;;;;;;5107902;28;20419;-68
2022/10/28 02:03:52;;;;;;;4.23;3.83;;;15.70;99.90;;;;;;5107158;28;20245;-68
2022/10/28 02:06:22;;;;;;;4.60;4.20;;;15.70;99.90;;;;;;5107576;28;20206;-68
2022/10/28 02:09:12;;;;;;;5.80;4.23;;;15.70;99.90;;;;;;5107461;28;20653;-68
2022/10/28 02:12:01;;;;;;;3.87;3.57;;;15.70;99.90;;;;;;5121823;28;20205;-68
2022/10/28 02:14:45;;;;;;;7.33;4.20;;;15.70;99.90;;;;;;5127776;27;20714;-68
2022/10/28 02:17:21;;;;;;;5.83;4.33;;;15.70;99.90;;;;;;5127897;27;20192;-69
2022/10/28 02:19:54;;;;;;;6.57;4.30;;;15.70;99.90;;;;;;5128229;27;20189;-69
2022/10/28 02:22:26;;;;;;;4.63;4.00;;;15.70;99.90;;;;;;5127996;27;20204;-69
2022/10/28 02:25:05;;;;;;;8.43;4.33;;;15.70;99.90;;;;;;5127719;27;20637;-69
2022/10/28 02:27:37;;;;;;;3.87;3.60;;;15.60;99.90;;;;;;5109689;27;20213;-69
2022/10/28 02:30:07;;;;;;;4.33;3.67;;;15.60;99.90;;;;;;5107892;28;20198;-69
2022/10/28 02:32:38;;;;;;;6.67;4.40;;;15.60;99.90;;;;;;5107446;28;20574;-69
2022/10/28 02:35:11;;;;;;;4.37;3.97;;;15.50;99.90;;;;;;5107602;28;20296;-69
2022/10/28 02:37:41;;;;;;;3.93;3.53;;;15.60;99.90;;;;;;5110837;28;20251;-69
2022/10/28 02:40:12;;;;;;;3.97;3.57;;;15.50;99.90;;;;;;5111023;28;20609;-69
2022/10/28 02:42:44;;;;;;;6.70;3.60;;;15.50;99.90;;;;;;5111454;28;20560;-68
2022/10/28 02:45:14;;;;;;;7.40;4.30;;;15.50;99.90;;;;;;5111337;28;20191;-68
2022/10/28 02:47:46;;;;;;;6.73;4.37;;;15.50;99.90;;;;;;5115294;27;20201;-68
2022/10/28 02:50:18;;;;;;;6.10;3.73;;;15.50;99.90;;;;;;5111339;28;20212;-69
2022/10/28 02:52:49;;;;;;;5.13;3.63;;;15.50;99.90;;;;;;5111588;28;20198;-68
2022/10/28 02:55:18;;;;;;;7.00;3.90;;;15.50;99.90;;;;;;5110578;28;20707;-69
2022/10/28 02:57:48;;;;;;;5.20;4.27;;;15.50;99.90;;;;;;5110836;28;20217;-69
2022/10/28 03:00:17;;;;;;;5.43;3.67;;;15.50;99.90;;;;;;5110889;28;20206;-69
2022/10/28 03:02:44;;;;;;;6.60;3.87;;;15.50;99.90;;;;;;5110784;28;20234;-68
2022/10/28 03:05:11;;;;;;;6.17;4.00;;;15.50;99.90;;;;;;5111238;28;20202;-69
2022/10/28 03:07:39;;;;;;;5.13;3.60;;;15.50;99.90;;;;;;5110933;28;20210;-68
2022/10/28 03:10:06;;;;;;;5.77;4.00;;;15.50;99.90;;;;;;5110325;28;20302;-69
2022/10/28 03:12:33;;;;;;;4.47;4.17;;;15.50;99.90;;;;;;5110541;28;20249;-68
2022/10/28 03:15:00;;;;;;;3.93;3.60;;;15.40;99.90;;;;;;5110787;28;20612;-68
2022/10/28 03:17:27;;;;;;;6.80;4.00;;;15.40;99.90;;;;;;5110015;28;20691;-68
2022/10/28 03:19:54;;;;;;;8.73;4.00;;;15.40;99.90;;;;;;5115556;27;20200;-69
2022/10/28 03:22:20;;;;;;;5.00;3.90;;;15.40;99.90;;;;;;5130889;27;20209;-68
2022/10/28 03:24:48;;;;;;;4.33;3.77;;;15.40;99.90;;;;;;5130522;27;20201;-69
2022/10/28 03:27:15;;;;;;;4.63;3.77;;;15.40;99.90;;;;;;5130913;27;20307;-68
2022/10/28 03:29:42;;;;;;;5.20;3.93;;;15.40;99.90;;;;;;5130867;27;20209;-69
2022/10/28 03:32:08;;;;;;;6.20;3.97;;;15.40;99.90;;;;;;5130988;27;20282;-68
2022/10/28 03:34:35;;;;;;;10.00;4.20;;;15.20;99.90;;;;;;5130631;27;20225;-68
2022/10/28 03:37:02;;;;;;;4.40;3.93;;;15.20;99.90;;;;;;5130701;27;20205;-68
2022/10/28 03:39:29;;;;;;;4.20;3.90;;;15.20;99.90;;;;;;5130169;27;20202;-69
2022/10/28 03:41:57;;;;;;;4.50;3.97;;;15.20;99.90;;;;;;5130470;27;20599;-69
2022/10/28 03:44:23;;;;;;;4.90;3.60;;;15.20;99.90;;;;;;5124851;27;20210;-70
2022/10/28 03:46:50;;;;;;;5.27;3.87;;;15.20;99.90;;;;;;5110282;28;20213;-68
2022/10/28 03:49:17;;;;;;;7.40;4.10;;;15.20;99.90;;;;;;5109808;28;20217;-69
2022/10/28 03:51:43;;;;;;;4.27;3.87;;;15.20;99.90;;;;;;5113770;27;20205;-69
2022/10/28 03:54:10;;;;;;;9.20;4.37;;;15.20;99.90;;;;;;5129857;27;20679;-69
2022/10/28 03:56:39;;;;;;;5.40;4.33;;;15.20;99.90;;;;;;5119924;27;20218;-69
2022/10/28 03:59:09;;;;;;;6.17;3.83;;;15.20;99.90;;;;;;5109797;28;20213;-68
2022/10/28 04:01:36;;;;;;;5.43;4.10;;;15.20;99.90;;;;;;5110134;28;20198;-69
2022/10/28 04:04:02;;;;;;;5.87;3.90;;;15.20;99.90;;;;;;5122737;27;20229;-69
2022/10/28 04:06:29;;;;;;;6.00;3.90;;;15.20;99.90;;;;;;5130494;27;20205;-68
2022/10/28 04:08:56;;;;;;;6.83;3.73;;;15.20;99.90;;;;;;5129925;27;20541;-70
2022/10/28 04:11:23;;;;;;;5.07;3.60;;;15.20;99.90;;;;;;5130193;27;20209;-68
2022/10/28 04:13:49;;;;;;;5.87;4.07;;;15.20;99.90;;;;;;5130171;27;20326;-69
2022/10/28 04:16:17;;;;;;;6.07;3.70;;;15.10;99.90;;;;;;5129916;27;20233;-69
2022/10/28 04:18:44;;;;;;;5.33;4.13;;;15.10;99.90;;;;;;5130214;27;20213;-69
2022/10/28 04:21:11;;;;;;;6.77;4.47;;;15.10;99.90;;;;;;5130102;27;20212;-68
2022/10/28 04:23:38;;;;;;;4.20;3.30;;;15.10;99.90;;;;;;5130132;27;20232;-68
2022/10/28 04:26:05;;;;;;;9.47;4.53;;;15.10;99.90;;;;;;5123796;27;20221;-69
2022/10/28 04:28:32;;;;;;;8.13;4.23;;;15.10;99.90;;;;;;5109142;28;20210;-69
2022/10/28 04:31:00;;;;;;;6.23;4.30;;;15.10;99.90;;;;;;5109400;28;20576;-69
2022/10/28 04:33:29;;;;;;;6.00;4.20;;;15.10;99.90;;;;;;5108905;28;20255;-69
2022/10/28 04:35:55;;;;;;;6.53;4.13;;;15.10;99.90;;;;;;5109001;28;20726;-69
2022/10/28 04:38:23;;;;;;;7.63;4.20;;;15.10;99.90;;;;;;5108736;27;20202;-69
2022/10/28 04:40:50;;;;;;;5.87;4.30;;;15.10;99.90;;;;;;5112989;27;20206;-69
2022/10/28 04:43:16;;;;;;;4.40;3.77;;;15.10;99.90;;;;;;5108635;28;20687;-68
2022/10/28 04:45:44;;;;;;;4.33;3.93;;;15.00;99.90;;;;;;5109023;28;20206;-68
2022/10/28 04:48:11;;;;;;;8.50;4.57;;;15.10;99.90;;;;;;5113038;27;20742;-68
2022/10/28 04:50:39;;;;;;;4.47;4.07;;;15.10;99.90;;;;;;5129405;27;20367;-69
2022/10/28 04:53:06;;;;;;;4.70;4.30;;;15.10;99.90;;;;;;5129423;27;20202;-68
2022/10/28 04:55:33;;;;;;;4.80;4.23;;;15.10;99.90;;;;;;5126973;27;20225;-69
2022/10/28 04:58:00;;;;;;;4.23;3.83;;;15.10;99.90;;;;;;5108128;28;20681;-68
2022/10/28 05:00:28;;;;;;;6.63;4.20;;;15.10;99.90;;;;;;5122407;27;20209;-69
2022/10/28 05:02:55;;;;;;;5.00;4.50;;;15.00;99.90;;;;;;5128640;27;20237;-69
2022/10/28 05:05:22;;;;;;;6.37;4.30;;;15.00;99.90;;;;;;5129012;27;20233;-69
2022/10/28 05:07:50;;;;;;;5.10;3.97;;;15.00;99.90;;;;;;5128981;27;20205;-68
2022/10/28 05:10:17;;;;;;;4.60;4.17;;;15.00;99.90;;;;;;5128294;27;20206;-69
2022/10/28 05:12:44;;;;;;;4.37;4.07;;;15.00;99.90;;;;;;5129022;27;20213;-69
2022/10/28 05:15:12;;;;;;;5.87;4.23;;;15.00;99.90;;;;;;5128720;27;20790;-69
2022/10/28 05:17:40;;;;;;;5.97;4.33;;;15.00;99.90;;;;;;5128647;27;20209;-69
2022/10/28 05:20:08;;;;;;;5.07;4.03;;;15.00;99.90;;;;;;5128418;27;20676;-69
2022/10/28 05:22:35;;;;;;;4.77;4.13;;;15.00;99.90;;;;;;5128938;27;20205;-68
2022/10/28 05:25:03;;;;;;;5.77;4.27;;;15.00;99.90;;;;;;5128530;27;20205;-68
2022/10/28 05:27:30;;;;;;;6.40;3.90;;;14.90;99.90;;;;;;5110360;27;20214;-69
2022/10/28 05:29:57;;;;;;;8.93;4.47;;;14.90;99.90;;;;;;5107869;28;20198;-69
2022/10/28 05:32:24;;;;;;;7.83;4.40;;;14.90;99.90;;;;;;5107875;28;20198;-68
2022/10/28 05:34:51;;;;;;;4.47;3.93;;;14.90;99.90;;;;;;5108246;28;20205;-69
2022/10/28 05:37:18;;;;;;;4.37;3.80;;;14.90;99.90;;;;;;5112105;27;20217;-69
2022/10/28 05:39:44;;;;;;;8.97;4.37;;;14.90;99.90;;;;;;5107647;28;20209;-69
2022/10/28 05:42:12;;;;;;;4.83;4.40;;;14.90;99.90;;;;;;5108321;28;20202;-69
2022/10/28 05:44:39;;;;;;;4.37;3.97;;;14.90;99.90;;;;;;5115650;27;20205;-68
2022/10/28 05:47:06;;;;;;;5.43;3.80;;;14.90;99.90;;;;;;5128775;27;20213;-69
2022/10/28 05:49:32;;;;;;;5.67;4.17;;;14.90;99.90;;;;;;5128302;27;20231;-69
2022/10/28 05:52:00;;;;;;;4.50;4.10;;;14.90;99.90;;;;;;5128801;27;20212;-68
2022/10/28 05:54:26;;;;;;;4.63;4.23;;;14.90;99.90;;;;;;5128074;27;20201;-69
2022/10/28 05:56:53;;;;;;;6.13;4.33;;;14.90;99.90;;;;;;5115432;27;20237;-68
2022/10/28 05:59:21;;;;;;;6.70;5.20;;;14.90;99.90;;;;;;5107836;28;20213;-68
2022/10/28 06:01:48;;;;;;;9.30;6.17;;;14.90;99.90;;;;;;5107882;28;20241;-68
2022/10/28 06:04:14;;;;;;;6.53;5.93;;;14.90;99.90;;;;;;5107735;28;20222;-68
2022/10/28 06:06:41;;;;;;;7.80;5.17;;;15.00;99.90;;;;;;5108139;28;20213;-68
2022/10/28 06:09:08;;;;;;;5.27;4.40;;;15.00;99.90;;;;;;5107688;28;20209;-68
2022/10/28 06:11:35;;;;;;;5.23;4.50;;;15.00;99.90;;;;;;5109305;28;20202;-68
2022/10/28 06:14:02;;;;;;;5.40;4.30;;;15.00;99.90;;;;;;5111796;28;20235;-68
2022/10/28 06:16:30;;;;;;;8.30;5.03;;;15.00;99.90;;;;;;5111905;28;20253;-68
2022/10/28 06:18:57;;;;;;;4.87;4.20;;;15.00;99.90;;;;;;5111913;28;20213;-68
2022/10/28 06:21:24;;;;;;;7.27;4.40;;;14.90;99.90;;;;;;5129206;27;20672;-68
2022/10/28 06:23:51;;;;;;;5.50;4.13;;;14.90;99.90;;;;;;5132519;27;20304;-68
2022/10/28 06:26:18;;;;;;;4.83;3.83;;;14.90;99.90;;;;;;5123667;27;20282;-68
2022/10/28 06:28:47;;;;;;;5.57;4.10;;;14.90;99.90;;;;;;5111950;28;20214;-68
2022/10/28 06:31:14;;;;;;;5.53;4.20;;;14.90;99.90;;;;;;5111816;28;20255;-68
2022/10/28 06:33:42;;;;;;;6.97;4.53;;;14.90;99.90;;;;;;5125375;27;20222;-68
2022/10/28 06:36:09;;;;;;;7.10;4.30;;;14.90;99.90;;;;;;5132077;27;20248;-68
2022/10/28 06:38:36;;;;;;;6.53;4.43;;;14.90;99.90;;;;;;5131820;27;20198;-68
2022/10/28 06:41:02;;;;;;;6.53;4.33;;;14.90;99.90;;;;;;5122778;27;20671;-68
2022/10/28 06:43:29;;;;;;;8.43;4.30;;;14.90;99.90;;;;;;5111270;28;20213;-68
2022/10/28 06:45:56;;;;;;;5.00;4.20;;;14.90;99.90;;;;;;5111368;28;20202;-68
2022/10/28 06:48:23;;;;;;;6.47;4.40;;;15.00;99.90;;;;;;5110699;28;20570;-68
2022/10/28 06:50:56;;;;;;;6.10;4.63;;;14.90;99.90;;;;;;5111174;28;20206;-68
2022/10/28 06:53:23;;;;;;;6.87;4.63;;;14.90;99.90;;;;;;5128706;27;20897;-68
2022/10/28 06:55:52;;;;;;;5.53;4.30;;;14.90;99.90;;;;;;5131190;27;20280;-68
2022/10/28 06:58:19;;;;;;;4.37;4.03;;;14.90;99.90;;;;;;5131518;27;20205;-68
2022/10/28 07:00:46;;;;;;;4.90;4.00;;;14.90;99.90;;;;;;5131360;27;20212;-68
2022/10/28 07:03:13;;;;;;;11.50;4.97;;;14.80;99.90;;;;;;5128898;27;20827;-68
2022/10/28 07:05:39;;;;;;;10.27;4.13;;;14.80;99.90;;;;;;5130219;27;20216;-68
2022/10/28 07:08:10;;;;;;;6.40;4.37;;;14.90;99.90;;;;;;5131456;27;20205;-68
2022/10/28 07:10:37;;;;;;;5.77;4.40;;;14.90;99.90;;;;;;5131077;27;20197;-68
2022/10/28 07:13:04;;;;;;;6.97;4.70;;;14.90;99.90;;;;;;5131479;27;20205;-68
2022/10/28 07:15:30;;;;;;;5.87;4.30;;;14.90;99.90;;;;;;5131043;27;20225;-68
2022/10/28 07:17:59;;;;;;;5.17;4.23;;;14.90;99.90;;;;;;5131298;27;20470;-68
2022/10/28 07:20:28;;;;;;;5.47;4.43;;;14.90;99.90;;;;;;5130917;27;20212;-68
2022/10/28 07:22:59;;;;;;;7.30;4.60;;;15.00;99.90;;;;;;5130791;27;20213;-68
2022/10/28 07:25:27;;;;;;;7.27;4.50;;;15.00;99.90;;;;;;5130658;27;20208;-68
2022/10/28 07:27:56;;;;;;;6.43;4.20;;;15.10;99.90;;;;;;5131223;27;20213;-68
2022/10/28 07:30:22;;;;;;;4.77;4.30;;;15.10;99.90;;;;;;5116829;27;20217;-68
2022/10/28 07:32:49;;;;;;;5.07;4.50;;;15.10;99.90;;;;;;5110030;28;20209;-69
2022/10/28 07:35:16;;;;;;;8.07;4.80;;;15.20;99.90;;;;;;5110058;28;20202;-68
2022/10/28 07:37:42;;;;;;;5.63;4.43;;;15.20;99.90;;;;;;5111605;27;20198;-69
2022/10/28 07:40:10;;;;;;;7.60;4.70;;;15.20;99.90;;;;;;5110186;28;20202;-69
2022/10/28 07:42:38;;;;;;;6.30;4.00;;;15.30;99.90;;;;;;5110050;28;21022;-69
2022/10/28 07:45:06;;;;;;;6.37;4.13;;;15.30;99.90;;;;;;5110293;27;20202;-69
2022/10/28 07:47:33;;;;;;;5.37;4.23;;;15.30;99.90;;;;;;5109836;28;20206;-69
2022/10/28 07:49:59;;;;;;;6.17;4.63;;;15.40;99.90;;;;;;5110004;28;20214;-68
2022/10/28 07:52:26;;;;;;;5.80;4.37;;;15.50;99.90;;;;;;5109678;28;20692;-68
2022/10/28 07:54:53;;;;;;;6.03;4.37;;;15.50;99.90;;;;;;5109656;28;20213;-69
2022/10/28 07:57:20;;;;;;;7.10;4.50;;;15.60;99.90;;;;;;5126322;27;20248;-69
2022/10/28 07:59:48;;;;;;;5.30;4.43;;;15.60;99.90;;;;;;5130473;27;20204;-69
2022/10/28 08:02:17;;;;;;;4.70;4.20;;;15.70;99.90;;;;;;5129975;27;20238;-69
2022/10/28 08:04:44;;;;;;;5.13;4.50;;;15.70;99.90;;;;;;5130323;27;20223;-69
2022/10/28 08:07:11;;;;;;;8.20;4.90;;;15.80;99.90;;;;;;5130152;27;20270;-69
2022/10/28 08:09:37;;;;;;;6.00;4.13;;;15.80;99.90;;;;;;5129927;27;20293;-68
2022/10/28 08:12:05;;;;;;;6.17;4.40;;;15.80;99.90;;;;;;5130335;27;20209;-68
2022/10/28 08:14:31;;;;;;;9.63;4.23;;;15.90;99.90;;;;;;5130269;27;20213;-68
2022/10/28 08:17:00;;;;;;;4.93;3.73;;;15.90;99.90;;;;;;5130108;27;20229;-68
2022/10/28 08:19:27;;;;;;;6.83;4.30;;;15.90;99.90;;;;;;5129852;27;20208;-68
2022/10/28 08:21:53;;;;;;;7.37;4.43;;;15.90;99.90;;;;;;5130237;27;20205;-69
2022/10/28 08:24:23;;;;;;;5.73;4.00;;;16.00;99.90;;;;;;5129334;27;20761;-69
2022/10/28 08:26:50;;;;;;;5.97;4.13;;;16.00;99.90;;;;;;5114403;27;20206;-69
2022/10/28 08:29:17;;;;;;;7.23;4.17;;;16.10;99.90;;;;;;5109020;28;20299;-69
2022/10/28 08:31:43;;;;;;;5.47;4.33;;;16.10;99.90;;;;;;5109385;28;20206;-69
2022/10/28 08:34:12;;;;;;;7.37;4.10;;;16.20;99.90;;;;;;5122075;27;20209;-69
2022/10/28 08:36:38;;;;;;;6.57;4.17;;;16.10;99.90;;;;;;5129278;27;20228;-69
2022/10/28 08:39:05;;;;;;;6.40;4.20;;;16.20;99.90;;;;;;5129380;27;20201;-69
2022/10/28 08:41:38;;;;;;;6.10;3.90;;;16.20;99.90;;;;;;5129175;27;20739;-69
2022/10/28 08:44:45;;;;;;;6.40;4.20;;;16.20;99.90;;;;;;5129088;27;20587;-69
2022/10/28 08:47:21;;;;;;;5.53;3.57;;;16.30;99.90;;;;;;5098649;27;20221;-69
2022/10/28 08:49:56;;;;;;;4.93;4.10;;;16.30;99.90;;;;;;5129313;27;20581;-69
2022/10/28 08:52:30;;;;;;;7.30;3.70;;;16.40;99.90;;;;;;5129302;27;20193;-69
2022/10/28 08:55:02;;;;;;;8.57;3.70;;;16.50;99.90;;;;;;5128626;27;20193;-68
2022/10/28 08:57:36;;;;;;;5.10;3.67;;;16.50;99.90;;;;;;5111354;27;20233;-68
2022/10/28 09:00:07;;;;;;;3.97;3.67;;;16.60;99.90;;;;;;5108357;28;20204;-69
2022/10/28 09:02:48;;;;;;;3.80;3.47;;;16.70;99.90;;;;;;5108069;28;20241;-68
2022/10/28 09:05:21;;;;;;;4.40;3.30;;;16.80;99.90;;;;;;5108094;28;20622;-68
2022/10/28 09:07:48;;;;;;;6.20;3.97;;;16.90;99.90;;;;;;5108738;28;20257;-68
2022/10/28 09:10:16;;;;;;;4.40;3.70;;;17.00;99.90;;;;;;5108192;28;20221;-68
2022/10/28 09:12:54;;;;;;;4.43;3.30;;;17.10;99.90;;;;;;5108573;28;20225;-68
2022/10/28 09:15:30;;;;;;;4.30;3.83;;;17.20;99.90;;;;;;5108452;28;20190;-68
2022/10/28 09:18:03;;;;;;;6.97;3.60;;;17.30;99.90;;;;;;5108438;28;20222;-68
2022/10/28 09:20:43;;;;;;;3.80;3.37;;;17.50;99.90;;;;;;5118271;27;20473;-68
2022/10/28 09:23:21;;;;;;;5.63;3.60;;;17.50;99.90;;;;;;5128424;27;20216;-68
2022/10/28 09:25:59;;;;;;;8.77;3.50;;;17.60;99.90;;;;;;5128295;27;20204;-68
2022/10/28 09:28:39;;;;;;;3.93;3.30;;;17.70;99.90;;;;;;5128946;27;20193;-68
2022/10/28 09:31:13;;;;;;;3.40;3.10;;;17.80;99.90;;;;;;5128135;27;20198;-67
2022/10/28 09:33:50;;;;;;;6.47;3.43;;;17.80;99.90;;;;;;5128682;27;20216;-68
2022/10/28 09:36:23;;;;;;;5.13;3.37;;;17.90;99.90;;;;;;5128749;27;20217;-68
2022/10/28 09:38:54;;;;;;;6.33;3.97;;;17.90;99.90;;;;;;5128321;27;20580;-68
2022/10/28 09:41:25;;;;;;;3.80;3.10;;;17.90;99.90;;;;;;5128131;27;20246;-68
2022/10/28 09:43:54;;;;;;;3.70;3.30;;;17.90;99.90;;;;;;5123494;27;20197;-68
2022/10/28 09:46:23;;;;;;;4.80;3.10;;;17.90;99.90;;;;;;5116965;27;20233;-68
2022/10/28 09:48:53;;;;;;;9.03;3.50;;;17.90;99.90;;;;;;5107823;28;20202;-68
2022/10/28 09:51:31;;;;;;;4.77;3.40;;;17.90;99.90;;;;;;5108149;28;20213;-68
2022/10/28 09:53:59;;;;;;;3.57;2.93;;;17.80;99.90;;;;;;5107644;28;20186;-67
2022/10/28 09:56:27;;;;;;;3.40;3.10;;;17.80;99.90;;;;;;5107682;28;20234;-68
2022/10/28 09:58:55;;;;;;;5.13;2.97;;;17.80;99.90;;;;;;5107667;28;20213;-68
2022/10/28 10:01:22;;;;;;;6.63;3.33;;;17.90;99.90;;;;;;5108110;28;20561;-67
2022/10/28 10:03:50;;;;;;;3.50;2.80;;;17.90;99.90;;;;;;5107456;28;20233;-68
2022/10/28 10:06:20;;;;;;;3.47;2.90;;;18.00;99.90;;;;;;5107582;28;20203;-68
2022/10/28 10:08:48;;;;;;;7.30;3.23;;;18.20;99.90;;;;;;5108107;28;20229;-68
2022/10/28 10:11:27;;;;;;;4.10;2.90;;;18.20;99.90;;;;;;5107522;28;20208;-68
2022/10/28 10:13:57;;;;;;;4.63;3.00;;;18.40;99.90;;;;;;5107926;28;20209;-68
2022/10/28 10:16:33;;;;;;;5.67;3.07;;;18.40;99.90;;;;;;5107775;28;20206;-68
2022/10/28 10:19:02;;;;;;;4.33;3.10;;;18.60;99.90;;;;;;5111846;28;20684;-68
2022/10/28 10:21:45;;;;;;;7.87;3.40;;;18.60;99.90;;;;;;5107822;28;20213;-69
2022/10/28 10:24:24;;;;;;;3.17;2.90;;;18.80;99.90;;;;;;5107728;28;20574;-69
2022/10/28 10:26:52;;;;;;;5.00;3.10;;;18.80;99.90;;;;;;5110670;28;20213;-69
2022/10/28 10:29:19;;;;;;;5.67;3.17;;;19.00;99.90;;;;;;5107496;28;20213;-69
2022/10/28 10:31:47;;;;;;;6.77;3.10;;;19.10;99.90;;;;;;5107499;28;20221;-69
2022/10/28 10:34:23;;;;;;;6.07;2.80;;;19.20;99.90;;;;;;5127827;27;20213;-69
2022/10/28 10:36:51;;;;;;;5.13;3.00;;;19.20;99.90;;;;;;5128052;27;20291;-69
2022/10/28 10:39:26;;;;;;;4.40;3.17;;;19.30;99.90;;;;;;5127647;27;20216;-69
2022/10/28 10:41:54;;;;;;;3.40;3.10;;;19.30;99.90;;;;;;5127972;27;20201;-69
2022/10/28 10:44:32;;;;;;;4.15;2.85;;;19.40;99.90;;;;;;5127740;27;20206;-69
2022/10/28 10:47:19;;;;;;;6.27;3.17;;;19.60;99.90;;;;;;5127552;27;20660;-69
2022/10/28 10:49:46;;;;;;;5.47;3.13;;;19.60;99.90;;;;;;5127872;27;20211;-69
2022/10/28 10:52:20;;;;;;;7.40;2.90;;;19.70;99.90;;;;;;5127907;27;20213;-69
2022/10/28 10:54:58;;;;;;;3.80;3.13;;;19.80;99.90;;;;;;5127797;27;20205;-69
2022/10/28 10:57:26;;;;;;;5.73;2.93;;;19.90;99.90;;;;;;5111508;27;20222;-69
2022/10/28 10:59:55;;;;;;;4.22;2.90;;;20.00;99.90;;;;;;5111007;28;20206;-69
2022/10/28 11:02:26;;;;;;;6.18;3.15;;;20.10;99.90;;;;;;5110648;28;20238;-69
2022/10/28 11:04:56;;;;;;;7.30;3.30;;;20.10;99.90;;;;;;5111096;28;20186;-69
2022/10/28 11:07:23;;;;;;;5.25;3.20;;;20.20;99.90;;;;;;5110930;28;20190;-69
2022/10/28 11:09:51;;;;;;;5.97;3.38;;;20.30;99.90;;;;;;5110726;28;20225;-69
2022/10/28 11:12:26;;;;;;;3.47;2.70;;;20.40;99.90;;;;;;5110565;28;20206;-69
2022/10/28 11:14:56;;;;;;;7.03;2.90;;;20.50;99.90;;;;;;5110689;28;20198;-69
2022/10/28 11:17:25;;;;;;;4.13;3.00;;;20.60;99.90;;;;;;5110714;28;20230;-69
2022/10/28 11:19:55;;;;;;;8.00;3.55;;;20.60;99.90;;;;;;5110466;28;20210;-69
2022/10/28 11:22:35;;;;;;;6.30;3.22;;;20.80;99.90;;;;;;5119283;27;20201;-69
2022/10/28 11:25:26;;;;;;;5.30;2.90;;;20.90;99.90;;;;;;5130693;27;20204;-69
2022/10/28 11:28:04;;;;;;;6.57;2.70;;;21.00;99.90;;;;;;5110544;28;20182;-69
2022/10/28 11:30:42;;;;;;;8.10;3.08;;;21.00;99.90;;;;;;5110316;28;20663;-69
2022/10/28 11:33:13;;;;;;;8.38;3.05;;;21.10;99.90;;;;;;5121603;27;20194;-69
2022/10/28 11:35:49;;;;;;;5.70;2.83;;;21.20;99.90;;;;;;5131047;27;20200;-69
2022/10/28 11:38:28;;;;;;;6.68;3.20;;;21.30;99.90;;;;;;5130595;27;20217;-69
2022/10/28 11:41:14;;;;;;;6.20;3.00;;;21.30;99.90;;;;;;5130529;27;20197;-69
2022/10/28 11:43:49;;;;;;;3.50;2.67;;;21.40;99.90;;;;;;5130750;27;20189;-69
2022/10/28 11:46:28;;;;;;;18.25;4.18;;;21.50;99.90;;;;;;5130720;27;20280;-69
2022/10/28 11:49:08;;;;;;;8.82;3.35;;;21.50;99.90;;;;;;5130498;27;20197;-69
2022/10/28 11:51:45;;;;;;;6.03;3.00;;;21.60;99.90;;;;;;5130264;27;20707;-69
2022/10/28 11:54:30;;;;;;;9.75;2.97;;;21.50;99.90;;;;;;5130413;27;20216;-69
2022/10/28 11:57:03;;;;;;;6.55;2.83;;;21.50;99.90;;;;;;5130675;27;20578;-69
2022/10/28 12:00:01;;;;;;;6.65;3.13;;;21.50;99.90;;;;;;5130266;27;20197;-69
2022/10/28 12:02:42;;;;;;;8.60;3.38;;;21.70;99.90;;;;;;5130007;27;20244;-69
2022/10/28 12:05:17;;;;;;;6.47;3.20;;;21.80;99.90;;;;;;5130629;27;20198;-69
2022/10/28 12:08:03;;;;;;;5.30;3.00;;;21.70;99.90;;;;;;5130525;27;20260;-69
2022/10/28 12:10:45;;;;;;;6.20;2.85;;;21.60;99.90;;;;;;5125344;27;20207;-69
2022/10/28 12:13:20;;;;;;;6.03;3.20;;;21.60;99.90;;;;;;5110117;28;20201;-71
2022/10/28 12:15:55;;;;;;;14.35;3.40;;;21.70;99.90;;;;;;5109699;28;20289;-69
2022/10/28 12:18:29;;;;;;;7.13;2.88;;;21.60;99.90;;;;;;5109618;28;20245;-69
2022/10/28 12:21:02;;;;;;;5.50;2.60;;;21.60;99.90;;;;;;5109509;28;20209;-69
2022/10/28 12:23:33;;;;;;;4.32;3.00;;;21.50;99.90;;;;;;5128049;27;20200;-69
2022/10/28 12:26:01;;;;;;;6.03;3.50;;;21.40;99.90;;;;;;5124240;27;20209;-69
2022/10/28 12:28:33;;;;;;;8.48;3.13;;;21.40;99.90;;;;;;5109231;28;20596;-69
2022/10/28 12:31:02;;;;;;;8.35;3.03;;;21.40;99.90;;;;;;5109219;28;20201;-69
2022/10/28 12:33:36;;;;;;;5.07;2.72;;;21.60;99.90;;;;;;5116820;27;20194;-69
2022/10/28 12:36:18;;;;;;;9.32;2.83;;;21.70;99.90;;;;;;5129800;27;20197;-69
2022/10/28 12:38:49;;;;;;;5.13;2.90;;;21.80;99.90;;;;;;5129516;27;20688;-69
2022/10/28 12:41:21;;;;;;;6.70;3.08;;;21.80;99.90;;;;;;5129226;27;20213;-69
2022/10/28 12:43:52;;;;;;;6.55;3.10;;;22.00;99.90;;;;;;5129389;27;20683;-69
2022/10/28 12:46:43;;;;;;;5.13;3.28;;;22.10;99.90;;;;;;5129349;27;20212;-69
2022/10/28 12:49:16;;;;;;;4.90;3.10;;;22.20;99.90;;;;;;5129337;27;20193;-69
2022/10/28 12:51:43;;;;;;;3.85;2.97;;;22.30;99.90;;;;;;5129378;27;20213;-69
2022/10/28 12:54:18;;;;;;;7.78;3.35;;;22.30;99.90;;;;;;5129025;27;20201;-69
2022/10/28 12:56:51;;;;;;;7.15;2.70;;;22.20;99.90;;;;;;5129219;27;20420;-69
2022/10/28 12:59:24;;;;;;;4.95;2.72;;;22.30;99.90;;;;;;5128843;27;21114;-69
2022/10/28 13:01:52;;;;;;;6.20;3.00;;;22.40;99.90;;;;;;5128867;27;20627;-69
2022/10/28 13:04:19;;;;;;;8.43;3.10;;;22.40;99.90;;;;;;5129156;27;20228;-69